マイアミ の空港の天気 - METARとTAF

マイアミ国際空港 ( KMIA / MIA ) - アメリカ フロリダ州マイアミ
飛行場実況気象(Metar)
観測時間12/09 08:53 EST (12/09 13:53 UTC)
風向・風速東南東 4m/s
視程10km以上
天気現象
少しの雲 雲底高度 820m
気温25.6℃
湿度67%
気圧1020.5hPa
METARKMIA 091353Z 12007KT 10SM FEW027 26/19 A3014 RMK AO2 SLP205 T02560189
過去の天気等 Google飛行場航空写真 Wunderground天気予報

過去48時間のMETAR

飛行場予報(TAF)
発表時間: 12/09 06:20 EST (12/09 11:20 UTC)
予報対象時間: 9日7時 EST ~ 10日13時 EST
風向・風速不定 3m/s
視程10km以上
少しの雲 雲底高度 910m
全天の4割程度の雲 雲底高度 3050m
9日10時 EST から
風向・風速東南東 5m/s
視程10km以上
全天の4割程度の雲 雲底高度 1070m
全天の4割程度の雲 雲底高度 3050m
9日19時 EST から
風向・風速不定 3m/s
視程10km以上
少しの雲 雲底高度 1220m
全天の4割程度の雲 雲底高度 3050m
10日10時 EST から
風向・風速南東 7m/s
視程10km以上
全天の4割程度の雲 雲底高度 1070m
全天の4割程度の雲 雲底高度 3050m
KMIA 091120Z 0912/1018 VRB05KT P6SM FEW030 SCT100
FM091500 12010KT P6SM SCT035 SCT100
FM100000 VRB06KT P6SM FEW040 SCT100
FM101500 13013KT P6SM SCT035 SCT100